Time;durP1;ratioP1;P1;durP2;ratioP2;P2;SDS_P1;SDS_P2;PMS_P1;PMS_P2;Temp;Humidity;BMP_temperature;BMP_pressure;BME280_temperature;BME280_humidity;BME280_pressure;Samples;Min_cycle;Max_cycle;Signal;HPM_P1;HPM_P2
2023/06/20 00:02:13;;;;;;;8.43;5.55;;;;;;;24.40;94.51;99684.72;5045723;28;20137;-63
2023/06/20 00:04:39;;;;;;;8.20;5.10;;;;;;;24.35;95.11;99702.47;5046921;28;20041;-62
2023/06/20 00:07:04;;;;;;;7.82;5.50;;;;;;;24.06;97.09;99723.34;5038630;28;20025;-63
2023/06/20 00:09:30;;;;;;;8.90;5.35;;;;;;;23.95;99.38;99726.19;5031335;28;20025;-61
2023/06/20 00:11:55;;;;;;;8.52;5.43;;;;;;;23.77;100.00;99708.84;5037037;28;20025;-61
2023/06/20 00:14:21;;;;;;;8.45;5.40;;;;;;;23.64;100.00;99719.13;5047301;28;20029;-61
2023/06/20 00:16:46;;;;;;;11.35;6.25;;;;;;;23.64;100.00;99716.41;5047772;28;20051;-61
2023/06/20 00:19:11;;;;;;;8.68;5.63;;;;;;;23.63;100.00;99729.13;5047122;28;20044;-61
2023/06/20 00:21:39;;;;;;;10.00;6.15;;;;;;;23.39;100.00;99709.63;5047973;28;20040;-61
2023/06/20 00:24:09;;;;;;;10.93;6.38;;;;;;;23.45;100.00;99733.50;5047249;28;20021;-61
2023/06/20 00:26:38;;;;;;;10.25;6.78;;;;;;;23.45;100.00;99733.50;5047376;28;20021;-61
2023/06/20 00:29:04;;;;;;;11.20;6.75;;;;;;;23.49;100.00;99739.50;5047322;28;20115;-61
2023/06/20 00:31:29;;;;;;;13.00;7.18;;;;;;;23.52;100.00;99736.50;5047587;28;20028;-62
2023/06/20 00:33:55;;;;;;;8.93;6.45;;;;;;;23.53;100.00;99743.66;5047378;28;20031;-61
2023/06/20 00:36:26;;;;;;;10.43;7.13;;;;;;;23.61;100.00;99739.25;5047650;28;20041;-62
2023/06/20 00:38:55;;;;;;;12.05;6.70;;;;;;;23.64;100.00;99727.28;5046599;28;20025;-62
2023/06/20 00:41:21;;;;;;;11.80;7.30;;;;;;;23.73;100.00;99726.41;5047389;28;20110;-62
2023/06/20 00:43:49;;;;;;;11.05;6.90;;;;;;;23.74;100.00;99730.88;5047453;28;20309;-62
2023/06/20 00:46:18;;;;;;;11.57;7.07;;;;;;;23.72;100.00;99736.44;5050644;28;20021;-62
2023/06/20 00:48:43;;;;;;;10.95;7.50;;;;;;;23.69;100.00;99719.56;5051725;28;20530;-62
2023/06/20 00:51:09;;;;;;;10.35;6.90;;;;;;;23.69;100.00;99722.28;5050586;28;20025;-62
2023/06/20 00:53:35;;;;;;;10.23;6.78;;;;;;;23.72;100.00;99722.00;5051741;28;20029;-62
2023/06/20 00:56:02;;;;;;;9.68;6.25;;;;;;;23.68;100.00;99734.13;5051540;28;20050;-62
2023/06/20 00:58:28;;;;;;;11.75;7.60;;;;;;;23.65;100.00;99726.25;5050975;28;20078;-62
2023/06/20 01:00:54;;;;;;;10.82;7.38;;;;;;;23.69;100.00;99741.28;5051349;28;20029;-62
2023/06/20 01:03:19;;;;;;;11.02;7.35;;;;;;;23.69;100.00;99730.44;5041434;28;20103;-62
2023/06/20 01:06:04;;;;;;;10.30;7.65;;;;;;;23.72;100.00;99724.72;5050678;28;20082;-62
2023/06/20 01:08:56;;;;;;;11.88;7.38;;;;;;;23.72;100.00;99730.16;5050676;28;20025;-62
2023/06/20 01:11:29;;;;;;;11.80;7.10;;;;;;;23.73;100.00;99732.72;5040320;28;20171;-62
2023/06/20 01:14:00;;;;;;;10.93;7.38;;;;;;;23.72;100.00;99730.16;5050855;28;20393;-61
2023/06/20 01:16:50;;;;;;;12.75;7.93;;;;;;;23.67;100.00;99721.56;5051438;28;20468;-62
2023/06/20 01:19:53;;;;;;;10.07;6.97;;;;;;;23.66;100.00;99708.97;5051037;28;20060;-62
2023/06/20 01:22:41;;;;;;;9.65;6.45;;;;;;;23.66;100.00;99703.56;5049957;28;20265;-62
2023/06/20 01:25:11;;;;;;;12.93;7.38;;;;;;;23.65;100.00;99701.81;5050279;28;20029;-62
2023/06/20 01:27:47;;;;;;;13.07;7.43;;;;;;;23.65;100.00;99701.81;5034976;28;20497;-62
2023/06/20 01:30:30;;;;;;;11.38;7.00;;;;;;;23.65;100.00;99701.81;5013342;28;20803;-62
2023/06/20 01:33:02;;;;;;;13.02;7.00;;;;;;;23.63;100.00;99703.81;5045056;28;20025;-62
2023/06/20 01:35:30;;;;;;;11.35;7.72;;;;;;;23.55;100.00;99690.06;5032982;28;20036;-62
2023/06/20 01:38:01;;;;;;;11.07;7.18;;;;;;;23.52;100.00;99701.22;5050216;28;20431;-62
2023/06/20 01:40:28;;;;;;;10.25;7.00;;;;;;;23.44;100.00;99694.63;5050449;28;20021;-62
2023/06/20 01:42:59;;;;;;;11.18;7.25;;;;;;;23.36;100.00;99683.59;5049378;28;20457;-62
2023/06/20 01:45:28;;;;;;;12.50;7.03;;;;;;;23.34;100.00;99688.28;5048963;28;20021;-62
2023/06/20 01:47:58;;;;;;;12.15;7.13;;;;;;;23.28;100.00;99683.44;5049343;28;20032;-62
2023/06/20 01:50:27;;;;;;;15.90;7.88;;;;;;;23.25;100.00;99691.81;5049031;28;20119;-62
2023/06/20 01:52:53;;;;;;;11.35;7.18;;;;;;;23.23;100.00;99684.78;5049755;28;20033;-62
2023/06/20 01:55:24;;;;;;;11.65;7.32;;;;;;;23.21;100.00;99687.66;5048396;28;20032;-62
2023/06/20 01:57:53;;;;;;;10.75;7.55;;;;;;;23.14;100.00;99683.78;5049297;28;20472;-62
2023/06/20 02:00:20;;;;;;;10.32;7.20;;;;;;;23.11;100.00;99692.19;5048995;28;20035;-61
2023/06/20 02:02:47;;;;;;;12.68;7.50;;;;;;;23.07;100.00;99690.75;5049265;28;20048;-62
2023/06/20 02:05:14;;;;;;;11.07;8.07;;;;;;;23.01;100.00;99679.59;5050064;28;20103;-62
2023/06/20 02:07:42;;;;;;;17.27;8.13;;;;;;;22.96;100.00;99690.84;5049930;28;20053;-62
2023/06/20 02:10:10;;;;;;;10.98;7.00;;;;;;;22.88;100.00;99682.50;5049617;28;20435;-61
2023/06/20 02:12:36;;;;;;;11.05;7.70;;;;;;;22.86;100.00;99670.09;5049202;28;20028;-61
2023/06/20 02:15:03;;;;;;;11.07;6.85;;;;;;;22.86;100.00;99676.38;5049586;28;20051;-62
2023/06/20 02:17:30;;;;;;;10.40;7.13;;;;;;;22.79;100.00;99672.47;5048667;28;20036;-61
2023/06/20 02:19:55;;;;;;;13.07;7.15;;;;;;;22.75;100.00;99672.91;5049809;28;20036;-62
2023/06/20 02:22:25;;;;;;;9.98;6.45;;;;;;;22.70;100.00;99665.13;5049338;28;20198;-62
2023/06/20 02:24:51;;;;;;;10.50;7.85;;;;;;;22.66;100.00;99663.72;5047807;28;20086;-62
2023/06/20 02:27:20;;;;;;;12.07;8.15;;;;;;;22.60;100.00;99658.81;5049917;28;20064;-62
2023/06/20 02:29:47;;;;;;;10.90;7.50;;;;;;;22.57;100.00;99664.50;5044620;28;20019;-62
2023/06/20 02:32:16;;;;;;;12.70;7.78;;;;;;;22.49;100.00;99661.56;5049345;28;20043;-61
2023/06/20 02:34:45;;;;;;;11.68;7.90;;;;;;;22.41;100.00;99661.38;5050031;28;20499;-62
2023/06/20 02:37:11;;;;;;;12.85;8.07;;;;;;;22.32;100.00;99656.75;5049620;28;20021;-62
2023/06/20 02:39:37;;;;;;;11.88;7.43;;;;;;;22.28;100.00;99652.59;5049721;28;20068;-62
2023/06/20 02:42:02;;;;;;;11.15;8.20;;;;;;;22.23;100.00;99649.41;5045618;28;20474;-62
2023/06/20 02:44:28;;;;;;;11.43;7.70;;;;;;;22.19;100.00;99646.09;5032908;28;20135;-62
2023/06/20 02:47:10;;;;;;;11.65;7.78;;;;;;;22.18;100.00;99651.66;5049270;28;20477;-62
2023/06/20 02:50:00;;;;;;;11.43;8.13;;;;;;;22.17;100.00;99658.06;5049646;28;20380;-61
2023/06/20 02:52:43;;;;;;;12.60;8.70;;;;;;;22.13;100.00;99660.19;5049114;28;20033;-62
2023/06/20 02:55:45;;;;;;;12.23;8.73;;;;;;;22.10;100.00;99670.41;5049517;28;20029;-62
2023/06/20 02:58:17;;;;;;;13.95;8.40;;;;;;;22.02;100.00;99678.34;5049474;28;20606;-62
2023/06/20 03:00:50;;;;;;;12.75;9.18;;;;;;;21.96;100.00;99684.25;5048075;28;20039;-62
2023/06/20 03:03:23;;;;;;;13.00;8.15;;;;;;;21.95;100.00;99685.25;5046743;28;20494;-62
2023/06/20 03:05:50;;;;;;;12.00;7.72;;;;;;;21.90;100.00;99680.25;5048580;28;20102;-61
2023/06/20 03:08:20;;;;;;;11.68;8.35;;;;;;;21.85;100.00;99687.03;5048187;28;20039;-62
2023/06/20 03:10:47;;;;;;;10.32;7.93;;;;;;;21.81;100.00;99686.41;5048968;28;20025;-62
2023/06/20 03:13:16;;;;;;;12.90;8.20;;;;;;;21.72;100.00;99689.00;5047590;28;20485;-62
2023/06/20 03:15:42;;;;;;;12.77;8.65;;;;;;;21.72;100.00;99691.72;5048635;28;20090;-62
2023/06/20 03:18:07;;;;;;;13.15;8.77;;;;;;;21.69;100.00;99691.97;5047897;28;20025;-62
2023/06/20 03:20:33;;;;;;;11.77;7.93;;;;;;;21.76;100.00;99699.47;5048490;28;20416;-62
2023/06/20 03:22:58;;;;;;;14.07;9.00;;;;;;;21.74;100.00;99695.16;5048303;28;20029;-62
2023/06/20 03:25:24;;;;;;;14.32;8.52;;;;;;;21.73;100.00;99699.69;5047551;28;20104;-62
2023/06/20 03:27:49;;;;;;;13.18;9.02;;;;;;;21.72;100.00;99697.13;5046619;28;20392;-62
2023/06/20 03:30:15;;;;;;;13.15;7.72;;;;;;;21.73;100.00;99693.44;5047635;28;20094;-62
2023/06/20 03:32:41;;;;;;;11.98;8.30;;;;;;;21.65;100.00;99685.06;5047208;28;20039;-62
2023/06/20 03:35:07;;;;;;;13.88;8.13;;;;;;;21.71;100.00;99690.84;5047490;28;20021;-62
2023/06/20 03:37:33;;;;;;;13.18;8.65;;;;;;;21.75;100.00;99696.88;5045486;28;20042;-63
2023/06/20 03:39:58;;;;;;;15.45;9.13;;;;;;;21.75;100.00;99699.56;5046765;28;20024;-62
2023/06/20 03:42:24;;;;;;;14.63;9.38;;;;;;;21.77;100.00;99700.34;5040981;28;20028;-62
2023/06/20 03:44:49;;;;;;;13.93;9.50;;;;;;;21.75;100.00;99703.16;5030035;28;20037;-62
2023/06/20 03:47:15;;;;;;;14.00;9.10;;;;;;;21.77;100.00;99708.47;5047979;28;20028;-61
2023/06/20 03:49:41;;;;;;;14.52;10.07;;;;;;;21.75;100.00;99705.84;5048228;28;20362;-62
2023/06/20 03:52:07;;;;;;;14.82;9.80;;;;;;;21.77;100.00;99712.03;5047235;28;20567;-62
2023/06/20 03:54:34;;;;;;;13.77;9.77;;;;;;;21.79;100.00;99710.06;5048267;28;20036;-62
2023/06/20 03:57:00;;;;;;;11.20;8.43;;;;;;;21.79;100.00;99709.22;5047291;28;20036;-62
2023/06/20 03:59:26;;;;;;;13.90;8.43;;;;;;;21.78;100.00;99707.47;5048147;28;20079;-62
2023/06/20 04:01:52;;;;;;;19.73;9.15;;;;;;;21.79;100.00;99710.06;5047864;28;20599;-62
2023/06/20 04:04:18;;;;;;;15.88;9.07;;;;;;;21.77;100.00;99716.59;5047184;28;20039;-62
2023/06/20 04:06:49;;;;;;;13.63;9.25;;;;;;;21.70;100.00;99712.63;5047529;28;20033;-62
2023/06/20 04:09:16;;;;;;;12.80;8.88;;;;;;;21.68;100.00;99706.50;5047921;28;20060;-62
2023/06/20 04:11:41;;;;;;;15.15;9.48;;;;;;;21.77;100.00;99716.59;5046674;28;20025;-62
2023/06/20 04:14:07;;;;;;;17.58;9.23;;;;;;;21.82;100.00;99709.81;5047476;28;20024;-62
2023/06/20 04:16:32;;;;;;;13.35;8.57;;;;;;;;;;5046699;28;20037;-62
2023/06/20 04:18:57;;;;;;;11.63;7.95;;;;;;;21.94;100.00;99718.75;5044809;28;20057;-62
2023/06/20 04:21:23;;;;;;;14.15;9.05;;;;;;;21.97;100.00;99719.38;5047666;28;20504;-62
2023/06/20 04:23:48;;;;;;;13.70;9.15;;;;;;;22.03;100.00;99708.00;5047710;28;20778;-63
2023/06/20 04:26:14;;;;;;;12.98;8.07;;;;;;;22.07;100.00;99714.88;5047248;28;20033;-62
2023/06/20 04:28:39;;;;;;;15.35;9.25;;;;;;;22.11;100.00;99716.34;5048077;28;20553;-63
2023/06/20 04:31:05;;;;;;;13.43;8.02;;;;;;;22.16;100.00;99719.53;5047455;28;20374;-62
2023/06/20 04:33:30;;;;;;;11.18;7.80;;;;;;;22.23;100.00;99722.56;5046620;28;20021;-62
2023/06/20 04:35:57;;;;;;;13.38;8.13;;;;;;;22.21;100.00;99721.84;5047989;28;20029;-61
2023/06/20 04:38:22;;;;;;;11.90;8.10;;;;;;;22.16;100.00;99705.09;5047674;28;20111;-62
2023/06/20 04:40:48;;;;;;;11.43;7.85;;;;;;;22.29;100.00;99716.63;5047157;28;20339;-62
2023/06/20 04:43:13;;;;;;;11.40;7.78;;;;;;;22.35;100.00;99723.38;5047332;28;20127;-62
2023/06/20 04:45:38;;;;;;;11.77;7.80;;;;;;;22.40;100.00;99722.00;5047475;28;20029;-62
2023/06/20 04:48:04;;;;;;;12.33;8.10;;;;;;;22.35;100.00;99718.84;5045967;28;20414;-62
2023/06/20 04:50:30;;;;;;;10.95;7.65;;;;;;;22.50;100.00;99719.38;5047540;28;20095;-62
2023/06/20 04:52:55;;;;;;;11.18;7.88;;;;;;;22.54;100.00;99715.41;5047011;28;20021;-62
2023/06/20 04:55:21;;;;;;;15.23;7.68;;;;;;;22.55;100.00;99726.16;5047357;28;20103;-62
2023/06/20 04:57:47;;;;;;;13.43;8.77;;;;;;;22.68;100.00;99721.38;5046622;28;20028;-62
2023/06/20 05:00:14;;;;;;;12.52;7.88;;;;;;;22.84;100.00;99721.75;5046762;28;20443;-62
2023/06/20 05:02:42;;;;;;;11.98;7.07;;;;;;;22.83;100.00;99719.19;5046365;28;20045;-62
2023/06/20 05:05:09;;;;;;;14.10;7.82;;;;;;;22.98;100.00;99724.09;5047511;28;20029;-62
2023/06/20 05:07:34;;;;;;;13.80;8.07;;;;;;;23.00;100.00;99716.69;5046800;28;20033;-62
2023/06/20 05:10:00;;;;;;;11.73;8.35;;;;;;;23.11;100.00;99724.75;5047613;28;20060;-61
2023/06/20 05:12:25;;;;;;;13.43;8.95;;;;;;;23.23;100.00;99731.81;5047338;28;20083;-61
2023/06/20 05:14:51;;;;;;;14.18;7.68;;;;;;;23.29;99.58;99723.13;5046910;28;20033;-62
2023/06/20 05:17:16;;;;;;;15.77;8.55;;;;;;;23.43;99.42;99724.63;5046299;28;20029;-62
2023/06/20 05:19:41;;;;;;;13.35;8.75;;;;;;;23.51;98.91;99726.66;5047321;28;20151;-61
2023/06/20 05:22:07;;;;;;;13.27;8.35;;;;;;;23.62;98.09;99718.41;5047115;28;20032;-62
2023/06/20 05:24:32;;;;;;;14.65;8.13;;;;;;;23.69;97.68;99719.56;5046927;28;20035;-61
2023/06/20 05:26:58;;;;;;;13.23;8.68;;;;;;;23.75;96.94;99714.44;5043732;28;20024;-62
2023/06/20 05:29:23;;;;;;;13.30;8.65;;;;;;;23.84;96.67;99724.44;5046815;28;20040;-62
2023/06/20 05:31:48;;;;;;;12.13;9.20;;;;;;;23.91;95.87;99722.00;5050679;28;20075;-61
2023/06/20 05:34:14;;;;;;;12.90;8.30;;;;;;;24.02;95.10;99728.22;5050275;28;20384;-61
2023/06/20 05:36:40;;;;;;;13.18;7.78;;;;;;;24.09;94.96;99713.06;5050338;28;20110;-62
2023/06/20 05:39:08;;;;;;;15.57;8.75;;;;;;;24.10;93.82;99708.50;5049109;28;20025;-62
2023/06/20 05:41:34;;;;;;;13.82;7.70;;;;;;;24.24;93.27;99717.06;5048761;28;20688;-62
2023/06/20 05:43:59;;;;;;;13.50;8.05;;;;;;;24.31;93.05;99722.78;5049226;28;20032;-62
2023/06/20 05:46:25;;;;;;;12.13;7.10;;;;;;;24.37;92.13;99719.50;5049644;28;20029;-62
2023/06/20 05:48:50;;;;;;;14.13;8.20;;;;;;;24.41;91.17;99713.66;5049407;28;20029;-62
2023/06/20 05:51:16;;;;;;;13.10;7.57;;;;;;;24.46;90.07;99721.38;5049179;28;20029;-62
2023/06/20 05:53:41;;;;;;;11.90;7.80;;;;;;;24.54;90.15;99721.50;5049940;28;20070;-62
2023/06/20 05:56:13;;;;;;;10.57;7.50;;;;;;;24.61;90.10;99725.34;5049278;28;20056;-61
2023/06/20 05:58:38;;;;;;;12.93;7.55;;;;;;;24.74;90.03;99720.50;5049465;28;20411;-62
2023/06/20 06:01:04;;;;;;;16.25;7.88;;;;;;;24.82;89.16;99717.03;5049578;28;20873;-61
2023/06/20 06:03:32;;;;;;;9.85;6.70;;;;;;;24.81;87.84;99710.72;5048885;28;20037;-62
2023/06/20 06:05:57;;;;;;;11.75;7.80;;;;;;;24.86;86.77;99715.75;5049772;28;20388;-62
2023/06/20 06:08:23;;;;;;;13.90;7.13;;;;;;;24.90;85.79;99706.25;5048987;28;20078;-61
2023/06/20 06:10:48;;;;;;;10.15;6.55;;;;;;;24.96;85.03;99713.84;5048770;28;20027;-61
2023/06/20 06:13:13;;;;;;;13.68;7.05;;;;;;;25.06;84.89;99715.53;5050145;28;20078;-61
2023/06/20 06:15:39;;;;;;;11.20;6.78;;;;;;;25.23;84.20;99720.19;5044411;28;20031;-61
2023/06/20 06:18:04;;;;;;;10.30;6.60;;;;;;;25.37;83.54;99713.44;5029934;28;20326;-61
2023/06/20 06:20:30;;;;;;;11.77;6.43;;;;;;;25.48;83.44;99715.97;5046480;28;20176;-62
2023/06/20 06:22:56;;;;;;;8.98;6.32;;;;;;;25.60;82.25;99715.59;5049400;28;20550;-61
2023/06/20 06:25:21;;;;;;;9.68;6.38;;;;;;;25.63;80.61;99722.63;5049163;28;20028;-61
2023/06/20 06:27:47;;;;;;;9.93;6.43;;;;;;;25.71;80.42;99723.56;5046535;28;20369;-62
2023/06/20 06:30:15;;;;;;;8.68;6.10;;;;;;;25.70;79.95;99696.47;5047362;28;20043;-61
2023/06/20 06:32:42;;;;;;;10.20;6.50;;;;;;;25.96;79.36;99717.34;5029596;28;20025;-61
2023/06/20 06:35:09;;;;;;;8.90;5.80;;;;;;;26.14;79.02;99709.25;5043645;28;20025;-61
2023/06/20 06:37:35;;;;;;;11.82;6.32;;;;;;;26.26;77.19;99718.88;5027804;28;20029;-61
2023/06/20 06:40:01;;;;;;;8.68;5.75;;;;;;;26.39;76.46;99708.44;5034312;28;20040;-61
2023/06/20 06:42:27;;;;;;;9.85;5.57;;;;;;;26.51;73.99;99709.03;5031528;28;20029;-61
2023/06/20 06:44:52;;;;;;;9.93;5.43;;;;;;;26.67;72.95;99701.03;5040856;28;20025;-61
2023/06/20 06:47:18;;;;;;;8.07;5.40;;;;;;;26.76;71.76;99708.25;5024226;28;20568;-61
2023/06/20 06:49:43;;;;;;;10.05;5.55;;;;;;;26.91;71.81;99709.38;5034641;28;20406;-61
2023/06/20 06:52:09;;;;;;;7.68;5.57;;;;;;;27.06;71.36;99702.31;5044369;28;20037;-61
2023/06/20 06:54:35;;;;;;;12.27;5.15;;;;;;;27.22;71.69;99696.94;5042931;28;20385;-60
2023/06/20 06:57:00;;;;;;;8.93;5.63;;;;;;;27.41;68.21;99699.47;5037256;28;20256;-61
2023/06/20 06:59:26;;;;;;;7.65;4.93;;;;;;;27.60;67.08;99701.94;5039659;28;20037;-60
2023/06/20 07:01:51;;;;;;;7.07;5.22;;;;;;;27.76;67.17;99701.97;5038508;28;20090;-61
2023/06/20 07:04:17;;;;;;;7.18;4.97;;;;;;;27.93;66.66;99701.03;5045300;28;20086;-60
2023/06/20 07:06:43;;;;;;;7.53;4.75;;;;;;;28.16;67.02;99704.84;5045826;28;20029;-61
2023/06/20 07:09:08;;;;;;;7.50;5.40;;;;;;;28.28;66.48;99708.97;5046691;28;20033;-60
2023/06/20 07:11:34;;;;;;;7.70;5.03;;;;;;;28.32;63.49;99706.72;5046882;28;20100;-61
2023/06/20 07:13:59;;;;;;;7.30;4.82;;;;;;;28.52;65.00;99704.56;5044698;28;20029;-60
2023/06/20 07:16:31;;;;;;;7.82;4.93;;;;;;;28.71;64.73;99709.69;5045174;28;20036;-60
2023/06/20 07:18:57;;;;;;;8.27;5.60;;;;;;;28.76;62.49;99713.63;5046550;28;20175;-61
2023/06/20 07:21:22;;;;;;;8.23;5.05;;;;;;;28.86;62.22;99713.44;5045221;28;20505;-60
2023/06/20 07:23:47;;;;;;;10.85;4.78;;;;;;;28.85;61.03;99709.81;5046641;28;20606;-60
2023/06/20 07:26:13;;;;;;;7.82;4.65;;;;;;;28.84;60.66;99710.00;5045229;28;20029;-60
2023/06/20 07:28:39;;;;;;;8.32;4.72;;;;;;;28.82;59.79;99706.56;5046717;28;20035;-61
2023/06/20 07:31:05;;;;;;;7.35;4.95;;;;;;;28.87;59.82;99709.66;5046874;28;20369;-61
2023/06/20 07:33:30;;;;;;;6.88;4.20;;;;;;;28.88;59.79;99703.16;5048122;28;20036;-61
2023/06/20 07:35:55;;;;;;;7.72;4.57;;;;;;;28.80;60.17;99706.75;5047409;28;20102;-61
2023/06/20 07:38:21;;;;;;;7.20;4.43;;;;;;;29.03;59.94;99715.97;5047718;28;20112;-61
2023/06/20 07:40:46;;;;;;;7.90;5.03;;;;;;;29.16;59.45;99715.47;5047469;28;20029;-61
2023/06/20 07:43:12;;;;;;;6.57;4.68;;;;;;;29.37;59.38;99719.31;5034957;28;20034;-61
2023/06/20 07:45:37;;;;;;;6.93;4.72;;;;;;;29.62;58.61;99707.22;5037975;28;20036;-61
2023/06/20 07:48:04;;;;;;;7.95;4.50;;;;;;;29.91;58.38;99717.56;5047995;28;20020;-61
2023/06/20 07:50:30;;;;;;;6.82;4.10;;;;;;;30.21;54.80;99707.63;5047226;28;20064;-60
2023/06/20 07:52:56;;;;;;;6.93;4.60;;;;;;;30.49;51.87;99709.66;5047181;28;20020;-60
2023/06/20 07:55:21;;;;;;;6.18;4.10;;;;;;;30.86;50.55;99712.44;5047501;28;20078;-61
2023/06/20 07:57:48;;;;;;;7.82;4.15;;;;;;;31.07;49.21;99708.97;5041973;28;20492;-60
2023/06/20 08:00:13;;;;;;;7.00;4.78;;;;;;;31.29;49.91;99704.44;5043189;28;20032;-61
2023/06/20 08:02:39;;;;;;;5.70;3.97;;;;;;;31.49;48.56;99700.09;5047246;28;20477;-60
2023/06/20 08:05:04;;;;;;;7.38;4.20;;;;;;;31.68;48.58;99705.03;5040812;28;20082;-60
2023/06/20 08:07:31;;;;;;;5.95;4.00;;;;;;;31.77;49.27;99707.47;5033777;28;20103;-60
2023/06/20 08:09:56;;;;;;;9.63;3.78;;;;;;;31.94;46.90;99702.63;5042325;28;20028;-61
2023/06/20 08:12:23;;;;;;;8.80;4.47;;;;;;;32.33;46.69;99704.94;5045884;28;20033;-61
2023/06/20 08:14:51;;;;;;;6.35;4.28;;;;;;;32.71;47.10;99701.78;5045310;28;20400;-60
2023/06/20 08:17:16;;;;;;;6.78;4.22;;;;;;;32.92;46.41;99706.41;5027502;28;20696;-60
2023/06/20 08:19:42;;;;;;;8.60;4.10;;;;;;;33.11;45.35;99691.94;5031316;28;20111;-60
2023/06/20 08:22:07;;;;;;;7.63;4.28;;;;;;;33.22;44.05;99696.88;5041539;28;20037;-59
2023/06/20 08:24:33;;;;;;;7.70;3.80;;;;;;;33.44;45.65;99700.44;5026905;28;20029;-60
2023/06/20 08:26:58;;;;;;;5.50;3.45;;;;;;;33.68;42.12;99694.41;5041853;28;20629;-59
2023/06/20 08:29:23;;;;;;;6.20;3.63;;;;;;;33.69;42.31;99698.88;5032745;28;20037;-59
2023/06/20 08:31:49;;;;;;;7.60;4.13;;;;;;;33.54;41.67;99689.88;5032689;28;20024;-59
2023/06/20 08:34:14;;;;;;;5.45;3.55;;;;;;;33.54;40.56;99695.41;5030652;28;20029;-59
2023/06/20 08:36:39;;;;;;;6.38;3.97;;;;;;;33.72;41.18;99695.72;5027909;28;20035;-60
2023/06/20 08:39:05;;;;;;;8.13;3.75;;;;;;;34.01;41.81;99689.91;5034034;28;20029;-60
2023/06/20 08:41:31;;;;;;;6.53;3.83;;;;;;;34.21;41.46;99683.38;5044879;28;20033;-60
2023/06/20 08:43:56;;;;;;;5.05;3.67;;;;;;;34.19;40.50;99679.13;5045857;28;20060;-60
2023/06/20 08:46:25;;;;;;;6.07;3.70;;;;;;;34.49;40.35;99677.72;5040939;28;20037;-60
2023/06/20 08:48:51;;;;;;;7.65;3.42;;;;;;;34.59;38.80;99675.38;5046285;28;20039;-60
2023/06/20 08:51:17;;;;;;;6.30;3.83;;;;;;;34.66;40.79;99670.72;5045803;28;20033;-60
2023/06/20 08:53:46;;;;;;;7.10;3.63;;;;;;;34.94;40.56;99674.16;5037249;28;20112;-59
2023/06/20 08:56:13;;;;;;;9.65;4.30;;;;;;;35.15;40.11;99673.91;5032992;28;20037;-59
2023/06/20 08:58:38;;;;;;;7.47;4.00;;;;;;;35.04;39.85;99670.94;5042665;28;20154;-59
2023/06/20 09:01:07;;;;;;;6.35;4.18;;;;;;;35.33;39.46;99663.00;5031208;28;20120;-59
2023/06/20 09:03:35;;;;;;;7.82;4.13;;;;;;;35.35;37.27;99666.41;5026314;28;20045;-60
2023/06/20 09:06:05;;;;;;;7.05;3.60;;;;;;;35.40;36.78;99666.63;5037087;28;20107;-60
2023/06/20 09:08:39;;;;;;;6.25;3.78;;;;;;;35.58;37.53;99671.47;5041850;28;20032;-60
2023/06/20 09:11:13;;;;;;;5.47;3.65;;;;;;;35.58;37.50;99661.25;5033420;28;20036;-60
2023/06/20 09:13:41;;;;;;;7.00;3.58;;;;;;;35.16;38.58;99660.91;5036592;28;20056;-59
2023/06/20 09:16:11;;;;;;;5.65;3.90;;;;;;;34.79;37.27;99659.66;5030681;28;20044;-59
2023/06/20 09:18:40;;;;;;;7.47;3.90;;;;;;;34.65;37.75;99655.19;5047382;28;20804;-59
2023/06/20 09:21:06;;;;;;;7.35;3.80;;;;;;;34.73;38.72;99648.59;5030507;28;20025;-60
2023/06/20 09:23:33;;;;;;;6.70;3.75;;;;;;;35.27;38.80;99647.25;5030290;28;20185;-60
2023/06/20 09:26:17;;;;;;;5.47;3.67;;;;;;;35.70;38.03;99653.94;5031803;28;20105;-60
2023/06/20 09:28:44;;;;;;;6.13;3.78;;;;;;;35.97;38.19;99653.84;5046320;28;20532;-59
2023/06/20 09:31:09;;;;;;;8.13;3.85;;;;;;;36.13;36.97;99653.34;5031558;28;20104;-60
2023/06/20 09:33:38;;;;;;;6.10;3.58;;;;;;;36.06;38.21;99656.16;5049668;28;20170;-59
2023/06/20 09:36:21;;;;;;;8.25;3.63;;;;;;;36.35;38.52;99649.16;5034913;28;20040;-59
2023/06/20 09:38:55;;;;;;;6.93;3.97;;;;;;;36.34;38.67;99664.97;5038174;28;20082;-59
2023/06/20 09:41:20;;;;;;;6.47;3.33;;;;;;;36.00;38.15;99664.50;5035541;28;20037;-59
2023/06/20 09:43:46;;;;;;;6.28;3.50;;;;;;;36.29;36.59;99658.34;5031654;28;20025;-60
2023/06/20 09:46:11;;;;;;;7.05;3.40;;;;;;;36.59;36.84;99659.44;5028868;28;20583;-59
2023/06/20 09:48:39;;;;;;;7.20;3.33;;;;;;;36.87;35.21;99657.91;5028936;28;20572;-59
2023/06/20 09:51:09;;;;;;;8.25;3.45;;;;;;;36.76;34.31;99664.19;5033323;28;20037;-60
2023/06/20 09:53:46;;;;;;;5.65;3.63;;;;;;;36.63;35.75;99655.97;5034614;28;20744;-60
2023/06/20 09:56:12;;;;;;;7.65;3.63;;;;;;;36.41;35.71;99662.13;5042450;28;20051;-60
2023/06/20 09:58:43;;;;;;;5.82;3.30;;;;;;;36.51;34.89;99663.31;5038525;28;20029;-59
2023/06/20 10:01:12;;;;;;;8.35;3.72;;;;;;;36.74;34.42;99671.00;5047665;28;20124;-59
2023/06/20 10:03:38;;;;;;;8.60;3.58;;;;;;;36.81;36.71;99663.53;5017450;28;20453;-60
2023/06/20 10:06:04;;;;;;;7.03;3.95;;;;;;;36.71;37.36;99663.16;5040455;28;20025;-59
2023/06/20 10:08:30;;;;;;;7.28;3.67;;;;;;;37.01;36.56;99655.88;5034644;28;20029;-60
2023/06/20 10:10:56;;;;;;;6.15;3.50;;;;;;;37.45;35.07;99661.19;5038210;28;20435;-60
2023/06/20 10:13:21;;;;;;;6.00;3.50;;;;;;;37.62;33.03;99661.41;5046013;28;20024;-60
2023/06/20 10:15:47;;;;;;;8.15;3.13;;;;;;;37.63;32.50;99666.72;5032174;28;20025;-60
2023/06/20 10:18:40;;;;;;;6.45;3.45;;;;;;;37.40;33.07;99663.81;5028785;28;20116;-60
2023/06/20 10:21:07;;;;;;;5.38;3.45;;;;;;;37.37;33.93;99644.84;5034547;28;20049;-60
2023/06/20 10:23:36;;;;;;;5.32;3.55;;;;;;;37.59;33.91;99651.63;5030157;28;20038;-60
2023/06/20 10:26:03;;;;;;;5.95;3.25;;;;;;;37.84;33.01;99649.59;5046101;28;20024;-59
2023/06/20 10:28:29;;;;;;;4.57;3.20;;;;;;;37.74;31.49;99638.25;5047704;28;20060;-60
2023/06/20 10:31:00;;;;;;;6.93;3.75;;;;;;;37.96;31.92;99639.41;5032396;28;20406;-60
2023/06/20 10:33:30;;;;;;;5.75;3.40;;;;;;;37.90;31.46;99643.13;5029114;28;20186;-60
2023/06/20 10:35:57;;;;;;;6.13;3.50;;;;;;;37.92;31.29;99635.44;5031070;28;20033;-60
2023/06/20 10:38:24;;;;;;;5.35;3.33;;;;;;;38.05;30.06;99632.47;5028977;28;20197;-60
2023/06/20 10:41:35;;;;;;;7.00;3.53;;;;;;;37.87;31.77;99626.94;5034996;28;20036;-59
2023/06/20 10:44:01;;;;;;;4.72;3.10;;;;;;;37.94;31.08;99607.41;5026985;28;20041;-60
2023/06/20 10:46:46;;;;;;;7.82;3.47;;;;;;;37.71;32.09;99622.00;5037195;28;20409;-60
2023/06/20 10:49:11;;;;;;;5.95;3.33;;;;;;;37.78;29.71;99622.78;5029081;28;20033;-60
2023/06/20 10:51:43;;;;;;;4.70;2.88;;;;;;;37.99;31.12;99630.59;5028452;28;20491;-60
2023/06/20 10:54:10;;;;;;;6.90;2.70;;;;;;;38.14;32.43;99617.16;5028579;28;20099;-60
2023/06/20 10:56:35;;;;;;;7.80;3.38;;;;;;;38.15;32.73;99630.00;5034069;28;20509;-60
2023/06/20 10:59:11;;;;;;;5.25;3.63;;;;;;;38.53;32.78;99637.09;5039336;28;20077;-60
2023/06/20 11:01:37;;;;;;;5.78;3.53;;;;;;;38.79;30.59;99631.09;5035087;28;20080;-60
2023/06/20 11:04:09;;;;;;;6.95;3.70;;;;;;;38.22;28.71;99627.09;5028789;28;20531;-59
2023/06/20 11:06:35;;;;;;;;;;;;;;;38.71;29.73;99626.75;5032772;28;20029;-61
2023/06/20 11:09:00;;;;;;;6.40;3.08;;;;;;;39.00;30.47;99616.56;5032820;28;20282;-60
2023/06/20 11:11:32;;;;;;;7.05;3.55;;;;;;;39.13;29.06;99621.91;5038697;28;20025;-60
2023/06/20 11:14:15;;;;;;;7.35;3.15;;;;;;;39.43;29.36;99611.47;5038773;28;20030;-60
2023/06/20 11:16:42;;;;;;;6.50;3.30;;;;;;;39.62;29.40;99614.97;5028301;28;20064;-60
2023/06/20 11:19:08;;;;;;;6.53;3.42;;;;;;;39.48;29.26;99616.31;5041851;28;20047;-61
2023/06/20 11:21:34;;;;;;;7.22;3.75;;;;;;;39.56;28.94;99616.78;5045637;28;20033;-61
2023/06/20 11:24:04;;;;;;;5.90;2.88;;;;;;;39.92;28.74;99610.88;5047944;28;20032;-61
2023/06/20 11:26:30;;;;;;;6.30;2.78;;;;;;;39.31;27.51;99605.06;5034983;28;20478;-60
2023/06/20 11:29:00;;;;;;;7.07;2.97;;;;;;;39.01;27.71;99608.00;5029799;28;20037;-60
2023/06/20 11:31:25;;;;;;;5.32;3.22;;;;;;;39.51;29.29;99594.41;5035377;28;20029;-60